sensor_id;sensor_type;location;lat;lon;timestamp;pressure;altitude;pressure_sealevel;temperature;humidity
34979;BME280;21185;50.978;13.720;2023-03-26T00:03:26;97191.25;;;9.34;64.60
34979;BME280;21185;50.978;13.720;2023-03-26T00:08:28;97191.25;;;9.34;64.70
34979;BME280;21185;50.978;13.720;2023-03-26T00:13:31;97203.22;;;9.35;64.85
34979;BME280;21185;50.978;13.720;2023-03-26T00:18:34;97199.47;;;9.37;64.88
34979;BME280;21185;50.978;13.720;2023-03-26T00:23:36;97216.41;;;9.40;64.78
34979;BME280;21185;50.978;13.720;2023-03-26T00:28:40;97216.06;;;9.43;64.64
34979;BME280;21185;50.978;13.720;2023-03-26T00:33:43;97224.44;;;9.45;64.77
34979;BME280;21185;50.978;13.720;2023-03-26T00:38:46;97233.19;;;9.44;65.14
34979;BME280;21185;50.978;13.720;2023-03-26T00:43:51;97223.38;;;9.39;65.52
34979;BME280;21185;50.978;13.720;2023-03-26T00:48:54;97215.53;;;9.33;66.11
34979;BME280;21185;50.978;13.720;2023-03-26T00:53:59;97218.22;;;9.25;66.37
34979;BME280;21185;50.978;13.720;2023-03-26T00:59:02;97209.81;;;9.23;66.83
34979;BME280;21185;50.978;13.720;2023-03-26T01:09:30;97194.28;;;9.23;66.85
34979;BME280;21185;50.978;13.720;2023-03-26T01:14:33;97192.34;;;9.25;66.60
34979;BME280;21185;50.978;13.720;2023-03-26T01:19:44;97197.31;;;9.26;66.59
34979;BME280;21185;50.978;13.720;2023-03-26T01:24:47;97194.56;;;9.28;66.64
34979;BME280;21185;50.978;13.720;2023-03-26T01:29:57;97188.75;;;9.26;66.65
34979;BME280;21185;50.978;13.720;2023-03-26T01:40:33;97202.41;;;9.20;66.69
34979;BME280;21185;50.978;13.720;2023-03-26T01:45:43;97199.22;;;9.18;66.65
34979;BME280;21185;50.978;13.720;2023-03-26T01:50:46;97197.34;;;9.12;66.59
34979;BME280;21185;50.978;13.720;2023-03-26T01:56:17;97197.34;;;9.12;66.42
34979;BME280;21185;50.978;13.720;2023-03-26T02:01:26;97182.97;;;9.09;66.68
34979;BME280;21185;50.978;13.720;2023-03-26T02:06:40;97187.06;;;9.03;66.59
34979;BME280;21185;50.978;13.720;2023-03-26T02:11:45;97205.53;;;9.00;66.83
34979;BME280;21185;50.978;13.720;2023-03-26T02:16:48;97197.16;;;8.98;66.76
34979;BME280;21185;50.978;13.720;2023-03-26T02:21:52;97204.28;;;8.96;67.10
34979;BME280;21185;50.978;13.720;2023-03-26T02:27:04;97207.50;;;8.98;67.20
34979;BME280;21185;50.978;13.720;2023-03-26T02:32:09;97201.34;;;8.99;67.41
34979;BME280;21185;50.978;13.720;2023-03-26T02:37:15;97211.69;;;8.99;67.75
34979;BME280;21185;50.978;13.720;2023-03-26T02:42:23;97215.28;;;8.98;68.17
34979;BME280;21185;50.978;13.720;2023-03-26T02:47:25;97210.09;;;8.98;68.34
34979;BME280;21185;50.978;13.720;2023-03-26T02:52:26;97201.53;;;8.98;68.35
34979;BME280;21185;50.978;13.720;2023-03-26T02:57:31;97205.44;;;8.94;68.21
34979;BME280;21185;50.978;13.720;2023-03-26T03:02:39;97197.25;;;8.90;68.34
34979;BME280;21185;50.978;13.720;2023-03-26T03:08:05;97205.34;;;8.87;68.22
34979;BME280;21185;50.978;13.720;2023-03-26T03:13:09;97199.75;;;8.84;68.13
34979;BME280;21185;50.978;13.720;2023-03-26T03:18:11;97194.75;;;8.82;68.17
34979;BME280;21185;50.978;13.720;2023-03-26T03:23:13;97197.31;;;8.82;68.24
34979;BME280;21185;50.978;13.720;2023-03-26T03:28:15;97204.47;;;8.80;68.42
34979;BME280;21185;50.978;13.720;2023-03-26T03:33:19;97202.06;;;8.79;68.49
34979;BME280;21185;50.978;13.720;2023-03-26T03:38:21;97206.06;;;8.81;68.29
34979;BME280;21185;50.978;13.720;2023-03-26T03:43:25;97210.88;;;8.84;68.41
34979;BME280;21185;50.978;13.720;2023-03-26T03:48:45;97224.44;;;8.86;68.39
34979;BME280;21185;50.978;13.720;2023-03-26T03:54:16;97211.34;;;8.88;68.46
34979;BME280;21185;50.978;13.720;2023-03-26T03:59:34;97202.41;;;8.90;68.50
34979;BME280;21185;50.978;13.720;2023-03-26T04:04:40;97218.91;;;8.89;68.58
34979;BME280;21185;50.978;13.720;2023-03-26T04:09:47;97218.28;;;8.87;69.24
34979;BME280;21185;50.978;13.720;2023-03-26T04:14:51;97222.50;;;8.88;69.02
34979;BME280;21185;50.978;13.720;2023-03-26T04:19:54;97210.53;;;8.87;69.07
34979;BME280;21185;50.978;13.720;2023-03-26T04:25:01;97204.72;;;8.85;69.31
34979;BME280;21185;50.978;13.720;2023-03-26T04:30:18;97208.47;;;8.83;69.67
34979;BME280;21185;50.978;13.720;2023-03-26T04:35:35;97205.88;;;8.83;69.50
34979;BME280;21185;50.978;13.720;2023-03-26T04:40:40;97207.69;;;8.82;69.54
34979;BME280;21185;50.978;13.720;2023-03-26T04:45:50;97197.94;;;8.84;69.55
34979;BME280;21185;50.978;13.720;2023-03-26T04:50:56;97198.56;;;8.86;69.46
34979;BME280;21185;50.978;13.720;2023-03-26T04:56:17;97202.16;;;8.85;69.47
34979;BME280;21185;50.978;13.720;2023-03-26T05:01:41;97190.19;;;8.84;69.31
34979;BME280;21185;50.978;13.720;2023-03-26T05:06:49;97186.97;;;8.82;69.55
34979;BME280;21185;50.978;13.720;2023-03-26T05:12:02;97184.94;;;8.77;69.53
34979;BME280;21185;50.978;13.720;2023-03-26T05:17:16;97192.84;;;8.76;69.34
34979;BME280;21185;50.978;13.720;2023-03-26T05:22:21;97188.03;;;8.73;69.01
34979;BME280;21185;50.978;13.720;2023-03-26T05:27:56;97194.38;;;8.70;68.87
34979;BME280;21185;50.978;13.720;2023-03-26T05:33:03;97193.56;;;8.70;69.08
34979;BME280;21185;50.978;13.720;2023-03-26T05:38:15;97211.38;;;8.65;69.10
34979;BME280;21185;50.978;13.720;2023-03-26T05:43:17;97195.88;;;8.65;69.04
34979;BME280;21185;50.978;13.720;2023-03-26T05:48:24;97198.47;;;8.65;68.98
34979;BME280;21185;50.978;13.720;2023-03-26T05:53:26;97198.47;;;8.65;68.96
34979;BME280;21185;50.978;13.720;2023-03-26T05:58:47;97207.47;;;8.69;69.22
34979;BME280;21185;50.978;13.720;2023-03-26T06:04:12;97193.66;;;8.76;69.20
34979;BME280;21185;50.978;13.720;2023-03-26T06:09:28;97205.97;;;8.89;68.97
34979;BME280;21185;50.978;13.720;2023-03-26T06:14:30;97202.34;;;8.98;68.97
34979;BME280;21185;50.978;13.720;2023-03-26T06:19:42;97200.47;;;9.07;68.87
34979;BME280;21185;50.978;13.720;2023-03-26T06:24:54;97186.88;;;9.20;68.75
34979;BME280;21185;50.978;13.720;2023-03-26T06:30:15;97193.56;;;9.29;68.65
34979;BME280;21185;50.978;13.720;2023-03-26T06:35:27;97190.88;;;9.37;68.64
34979;BME280;21185;50.978;13.720;2023-03-26T06:40:32;97191.34;;;9.40;68.55
34979;BME280;21185;50.978;13.720;2023-03-26T06:45:51;97193.38;;;9.45;68.63
34979;BME280;21185;50.978;13.720;2023-03-26T06:51:11;97187.22;;;9.46;68.53
34979;BME280;21185;50.978;13.720;2023-03-26T06:56:45;97195.59;;;9.48;68.37
34979;BME280;21185;50.978;13.720;2023-03-26T07:01:59;97197.84;;;9.51;68.46
34979;BME280;21185;50.978;13.720;2023-03-26T07:07:19;97203.00;;;9.51;68.52
34979;BME280;21185;50.978;13.720;2023-03-26T07:12:42;97204.00;;;9.50;68.36
34979;BME280;21185;50.978;13.720;2023-03-26T07:18:03;97201.41;;;9.50;68.14
34979;BME280;21185;50.978;13.720;2023-03-26T07:23:09;97199.06;;;9.55;68.19
34979;BME280;21185;50.978;13.720;2023-03-26T07:28:35;97201.13;;;9.60;67.75
34979;BME280;21185;50.978;13.720;2023-03-26T07:45:29;97189.22;;;9.65;67.67
34979;BME280;21185;50.978;13.720;2023-03-26T07:50:54;97192.44;;;9.67;67.69
34979;BME280;21185;50.978;13.720;2023-03-26T07:56:47;97186.53;;;9.73;67.65
34979;BME280;21185;50.978;13.720;2023-03-26T08:02:34;97186.53;;;9.73;67.54
34979;BME280;21185;50.978;13.720;2023-03-26T08:08:06;97180.97;;;9.77;67.56
34979;BME280;21185;50.978;13.720;2023-03-26T08:19:11;97180.81;;;9.78;67.42
34979;BME280;21185;50.978;13.720;2023-03-26T08:24:24;97178.09;;;9.86;67.44
34979;BME280;21185;50.978;13.720;2023-03-26T08:29:41;97179.41;;;9.97;67.02
34979;BME280;21185;50.978;13.720;2023-03-26T08:34:47;97174.09;;;10.05;66.96
34979;BME280;21185;50.978;13.720;2023-03-26T08:39:48;97171.75;;;10.10;66.28
34979;BME280;21185;50.978;13.720;2023-03-26T08:45:19;97169.41;;;10.15;66.62
34979;BME280;21185;50.978;13.720;2023-03-26T09:02:03;97174.66;;;10.22;66.27
34979;BME280;21185;50.978;13.720;2023-03-26T09:35:02;97127.06;;;10.64;65.81
34979;BME280;21185;50.978;13.720;2023-03-26T09:45:47;97114.06;;;10.92;64.93
34979;BME280;21185;50.978;13.720;2023-03-26T09:51:11;97113.31;;;11.04;64.91
34979;BME280;21185;50.978;13.720;2023-03-26T09:56:24;97103.81;;;11.25;64.58
34979;BME280;21185;50.978;13.720;2023-03-26T10:07:05;97097.91;;;11.64;63.64
34979;BME280;21185;50.978;13.720;2023-03-26T10:12:38;97093.91;;;11.61;63.61
34979;BME280;21185;50.978;13.720;2023-03-26T10:22:55;97080.47;;;11.38;63.25
34979;BME280;21185;50.978;13.720;2023-03-26T10:28:20;97075.06;;;11.33;63.78
34979;BME280;21185;50.978;13.720;2023-03-26T10:39:02;97047.88;;;11.29;63.28
34979;BME280;21185;50.978;13.720;2023-03-26T10:55:45;97019.97;;;11.71;61.87
34979;BME280;21185;50.978;13.720;2023-03-26T11:01:02;97012.63;;;11.81;61.61
34979;BME280;21185;50.978;13.720;2023-03-26T11:11:38;97002.00;;;11.95;61.40
34979;BME280;21185;50.978;13.720;2023-03-26T11:33:34;96988.19;;;12.08;60.92
34979;BME280;21185;50.978;13.720;2023-03-26T11:38:43;96978.00;;;12.00;59.91
34979;BME280;21185;50.978;13.720;2023-03-26T11:43:54;96961.78;;;12.11;59.52
34979;BME280;21185;50.978;13.720;2023-03-26T11:48:59;96963.72;;;12.36;59.17
34979;BME280;21185;50.978;13.720;2023-03-26T11:54:05;96951.66;;;12.54;58.82
34979;BME280;21185;50.978;13.720;2023-03-26T12:04:36;96952.16;;;12.76;57.78
34979;BME280;21185;50.978;13.720;2023-03-26T12:15:20;96948.28;;;12.85;57.86
34979;BME280;21185;50.978;13.720;2023-03-26T12:25:35;96931.78;;;12.67;57.49
34979;BME280;21185;50.978;13.720;2023-03-26T12:30:42;96928.63;;;12.58;57.21
34979;BME280;21185;50.978;13.720;2023-03-26T12:35:53;96933.47;;;12.48;57.14
34979;BME280;21185;50.978;13.720;2023-03-26T12:41:10;96934.31;;;12.35;56.58
34979;BME280;21185;50.978;13.720;2023-03-26T12:46:34;96929.94;;;12.22;56.85
34979;BME280;21185;50.978;13.720;2023-03-26T12:52:28;96938.75;;;12.21;57.18
34979;BME280;21185;50.978;13.720;2023-03-26T12:57:45;96922.53;;;12.26;57.41
34979;BME280;21185;50.978;13.720;2023-03-26T13:19:14;96905.50;;;12.37;57.17
34979;BME280;21185;50.978;13.720;2023-03-26T13:51:00;96924.03;;;11.62;59.10
34979;BME280;21185;50.978;13.720;2023-03-26T13:56:07;96917.84;;;11.37;59.63
34979;BME280;21185;50.978;13.720;2023-03-26T14:01:26;96914.06;;;11.20;59.78
34979;BME280;21185;50.978;13.720;2023-03-26T14:17:17;96919.25;;;11.13;60.54
34979;BME280;21185;50.978;13.720;2023-03-26T14:33:24;96921.97;;;10.79;62.09
34979;BME280;21185;50.978;13.720;2023-03-26T15:11:38;96903.06;;;10.24;64.16
34979;BME280;21185;50.978;13.720;2023-03-26T15:44:40;96889.75;;;9.92;65.60
34979;BME280;21185;50.978;13.720;2023-03-26T15:55:33;96894.09;;;9.85;65.71
34979;BME280;21185;50.978;13.720;2023-03-26T16:01:34;96889.09;;;9.84;65.92
34979;BME280;21185;50.978;13.720;2023-03-26T16:06:23;96893.28;;;9.85;65.83
34979;BME280;21185;50.978;13.720;2023-03-26T16:17:21;96892.91;;;9.88;65.84
34979;BME280;21185;50.978;13.720;2023-03-26T16:22:54;96893.31;;;9.91;66.03
34979;BME280;21185;50.978;13.720;2023-03-26T16:28:19;96890.72;;;9.91;66.10
34979;BME280;21185;50.978;13.720;2023-03-26T16:33:35;96887.94;;;9.93;66.06
34979;BME280;21185;50.978;13.720;2023-03-26T16:39:36;96887.56;;;9.96;66.24
34979;BME280;21185;50.978;13.720;2023-03-26T16:44:20;96886.56;;;9.97;66.19
34979;BME280;21185;50.978;13.720;2023-03-26T16:54:53;96890.75;;;9.98;66.23
34979;BME280;21185;50.978;13.720;2023-03-26T17:05:21;96884.56;;;9.92;66.51
34979;BME280;21185;50.978;13.720;2023-03-26T17:10:35;96884.56;;;9.92;66.65
34979;BME280;21185;50.978;13.720;2023-03-26T17:16:00;96884.38;;;9.94;66.64
34979;BME280;21185;50.978;13.720;2023-03-26T17:21:20;96891.72;;;9.90;66.83
34979;BME280;21185;50.978;13.720;2023-03-26T17:27:29;96894.50;;;9.89;66.94
34979;BME280;21185;50.978;13.720;2023-03-26T17:32:13;96899.06;;;9.87;66.95
34979;BME280;21185;50.978;13.720;2023-03-26T17:42:28;96898.47;;;9.85;67.00
34979;BME280;21185;50.978;13.720;2023-03-26T17:47:40;96905.63;;;9.83;67.15
34979;BME280;21185;50.978;13.720;2023-03-26T17:53:02;96905.63;;;9.83;67.39
34979;BME280;21185;50.978;13.720;2023-03-26T18:03:49;96907.81;;;9.79;67.62
34979;BME280;21185;50.978;13.720;2023-03-26T18:20:02;96914.72;;;9.72;67.86
34979;BME280;21185;50.978;13.720;2023-03-26T18:25:21;96915.91;;;9.69;68.03
34979;BME280;21185;50.978;13.720;2023-03-26T18:30:24;96915.91;;;9.69;67.96
34979;BME280;21185;50.978;13.720;2023-03-26T18:35:43;96915.72;;;9.71;68.11
34979;BME280;21185;50.978;13.720;2023-03-26T18:40:47;96910.13;;;9.67;68.08
34979;BME280;21185;50.978;13.720;2023-03-26T18:45:52;96910.50;;;9.64;68.05
34979;BME280;21185;50.978;13.720;2023-03-26T18:51:00;96908.91;;;9.63;68.16
34979;BME280;21185;50.978;13.720;2023-03-26T18:56:27;96898.53;;;9.63;68.42
34979;BME280;21185;50.978;13.720;2023-03-26T19:01:31;96902.91;;;9.63;68.40
34979;BME280;21185;50.978;13.720;2023-03-26T19:06:38;96888.38;;;9.62;68.39
34979;BME280;21185;50.978;13.720;2023-03-26T19:11:42;96891.34;;;9.59;68.31
34979;BME280;21185;50.978;13.720;2023-03-26T19:16:58;96897.09;;;9.54;68.68
34979;BME280;21185;50.978;13.720;2023-03-26T19:22:03;96876.31;;;9.48;68.68
34979;BME280;21185;50.978;13.720;2023-03-26T19:27:06;96876.13;;;9.49;68.82
34979;BME280;21185;50.978;13.720;2023-03-26T19:32:26;96872.38;;;9.52;68.99
34979;BME280;21185;50.978;13.720;2023-03-26T19:37:29;96870.34;;;9.47;68.79
34979;BME280;21185;50.978;13.720;2023-03-26T19:42:32;96858.53;;;9.38;68.99
34979;BME280;21185;50.978;13.720;2023-03-26T19:47:47;96853.50;;;9.30;69.22
34979;BME280;21185;50.978;13.720;2023-03-26T19:53:20;96847.47;;;9.23;69.45
34979;BME280;21185;50.978;13.720;2023-03-26T19:58:25;96845.63;;;9.17;69.48
34979;BME280;21185;50.978;13.720;2023-03-26T20:03:36;96840.47;;;9.17;69.66
34979;BME280;21185;50.978;13.720;2023-03-26T20:08:40;96833.88;;;9.14;69.86
34979;BME280;21185;50.978;13.720;2023-03-26T20:13:43;96824.69;;;9.12;69.93
34979;BME280;21185;50.978;13.720;2023-03-26T20:18:45;96816.69;;;9.06;70.09
34979;BME280;21185;50.978;13.720;2023-03-26T20:23:48;96816.69;;;9.06;70.05
34979;BME280;21185;50.978;13.720;2023-03-26T20:28:54;96816.31;;;9.09;70.09
34979;BME280;21185;50.978;13.720;2023-03-26T20:33:56;96814.34;;;9.12;70.16
34979;BME280;21185;50.978;13.720;2023-03-26T20:38:59;96816.50;;;9.08;70.32
34979;BME280;21185;50.978;13.720;2023-03-26T20:44:01;96816.31;;;9.09;70.43
34979;BME280;21185;50.978;13.720;2023-03-26T20:49:05;96810.59;;;9.14;70.50
34979;BME280;21185;50.978;13.720;2023-03-26T20:54:27;96800.03;;;9.16;70.66
34979;BME280;21185;50.978;13.720;2023-03-26T20:59:30;96799.44;;;9.14;70.52
34979;BME280;21185;50.978;13.720;2023-03-26T21:04:33;96791.66;;;9.14;70.36
34979;BME280;21185;50.978;13.720;2023-03-26T21:09:35;96789.47;;;9.11;70.65
34979;BME280;21185;50.978;13.720;2023-03-26T21:14:39;96790.22;;;9.04;70.77
34979;BME280;21185;50.978;13.720;2023-03-26T21:19:45;96791.38;;;9.02;70.82
34979;BME280;21185;50.978;13.720;2023-03-26T21:30:11;96811.41;;;8.93;71.08
34979;BME280;21185;50.978;13.720;2023-03-26T21:35:17;96826.75;;;8.95;71.09
34979;BME280;21185;50.978;13.720;2023-03-26T21:40:19;96838.88;;;8.94;71.27
34979;BME280;21185;50.978;13.720;2023-03-26T21:45:22;96850.22;;;8.93;71.17
34979;BME280;21185;50.978;13.720;2023-03-26T21:50:24;96852.00;;;8.93;71.26
34979;BME280;21185;50.978;13.720;2023-03-26T21:55:26;96856.00;;;8.95;71.21
34979;BME280;21185;50.978;13.720;2023-03-26T22:11:02;96841.22;;;8.89;71.32
34979;BME280;21185;50.978;13.720;2023-03-26T22:16:05;96844.00;;;8.88;71.39
34979;BME280;21185;50.978;13.720;2023-03-26T22:21:08;96845.97;;;8.86;71.32
34979;BME280;21185;50.978;13.720;2023-03-26T22:26:10;96844.75;;;8.82;71.75
34979;BME280;21185;50.978;13.720;2023-03-26T22:31:12;96848.50;;;8.79;71.80
34979;BME280;21185;50.978;13.720;2023-03-26T22:36:14;96846.91;;;8.78;71.64
34979;BME280;21185;50.978;13.720;2023-03-26T22:41:24;96851.03;;;8.72;71.89
34979;BME280;21185;50.978;13.720;2023-03-26T22:46:26;96847.16;;;8.62;72.16
34979;BME280;21185;50.978;13.720;2023-03-26T22:51:29;96845.31;;;8.56;72.15
34979;BME280;21185;50.978;13.720;2023-03-26T22:56:31;96853.44;;;8.53;72.35
34979;BME280;21185;50.978;13.720;2023-03-26T23:01:33;96854.41;;;8.52;72.29
34979;BME280;21185;50.978;13.720;2023-03-26T23:06:36;96854.59;;;8.50;72.42
34979;BME280;21185;50.978;13.720;2023-03-26T23:11:38;96856.00;;;8.53;72.41
34979;BME280;21185;50.978;13.720;2023-03-26T23:16:40;96854.66;;;8.57;72.24
34979;BME280;21185;50.978;13.720;2023-03-26T23:21:43;96852.88;;;8.57;72.30
34979;BME280;21185;50.978;13.720;2023-03-26T23:26:45;96859.47;;;8.60;72.35
34979;BME280;21185;50.978;13.720;2023-03-26T23:31:49;96863.28;;;8.64;72.16
34979;BME280;21185;50.978;13.720;2023-03-26T23:36:53;96869.69;;;8.68;72.15
34979;BME280;21185;50.978;13.720;2023-03-26T23:41:55;96883.06;;;8.71;72.04
34979;BME280;21185;50.978;13.720;2023-03-26T23:46:57;96870.91;;;8.72;72.13
34979;BME280;21185;50.978;13.720;2023-03-26T23:52:01;96879.28;;;8.74;72.20
34979;BME280;21185;50.978;13.720;2023-03-26T23:57:03;96875.91;;;8.73;71.93
